Time,TemperatureF,DewpointF,PressureIn,WindDirection,WindDirectionDegrees,WindSpeedMPH,WindSpeedGustMPH,Humidity,HourlyPrecipIn,Conditions,Clouds,dailyrainin,SoftwareType,DateUTC
2013-01-19 00:00:00,24.8,22.5,29.75,West,277,1.0,1.0,91,0.00,,,0.02,Wunderground v.1.13,2013-01-19 06:00:00,
2013-01-19 00:01:00,24.8,22.5,29.75,West,277,1.0,1.0,91,0.00,,,0.00,Wunderground v.1.13,2013-01-19 06:01:00,
2013-01-19 00:05:00,24.9,22.6,29.75,West,277,0.0,0.0,91,0.00,,,0.00,Wunderground v.1.13,2013-01-19 06:05:00,
2013-01-19 00:06:00,24.9,22.6,29.75,West,277,0.0,0.0,91,0.00,,,0.00,Wunderground v.1.13,2013-01-19 06:06:00,
2013-01-19 00:07:00,24.9,22.6,29.75,West,277,0.0,0.0,91,0.00,,,0.00,Wunderground v.1.13,2013-01-19 06:07:00,
2013-01-19 00:10:00,24.9,22.6,29.75,West,277,0.0,0.0,91,0.00,,,0.00,Wunderground v.1.13,2013-01-19 06:10:00,
2013-01-19 00:15:00,24.9,22.6,29.75,West,277,0.0,0.0,91,0.00,,,0.00,Wunderground v.1.13,2013-01-19 06:15:00,
2013-01-19 00:19:00,24.9,22.6,29.75,West,277,0.0,0.0,91,0.00,,,0.00,Wunderground v.1.13,2013-01-19 06:19:00,
2013-01-19 00:20:00,24.9,22.6,29.75,West,277,0.0,0.0,91,0.00,,,0.00,Wunderground v.1.13,2013-01-19 06:20:00,
2013-01-19 00:26:00,25.0,22.7,29.75,West,277,0.0,0.0,91,0.00,,,0.00,Wunderground v.1.13,2013-01-19 06:26:00,
2013-01-19 00:27:00,24.9,22.6,29.75,West,277,0.0,0.0,91,0.00,,,0.00,Wunderground v.1.13,2013-01-19 06:27:00,
2013-01-19 00:28:00,25.0,22.7,29.75,West,277,0.0,0.0,91,0.00,,,0.00,Wunderground v.1.13,2013-01-19 06:28:00,
2013-01-19 00:33:00,24.9,22.6,29.75,West,277,0.0,0.0,91,0.00,,,0.00,Wunderground v.1.13,2013-01-19 06:33:00,
2013-01-19 00:34:00,24.9,22.6,29.74,West,277,0.0,0.0,91,0.00,,,0.00,Wunderground v.1.13,2013-01-19 06:34:00,
2013-01-19 00:37:00,24.9,22.6,29.74,West,277,0.0,0.0,91,0.00,,,0.00,Wunderground v.1.13,2013-01-19 06:37:00,
2013-01-19 00:40:00,24.9,22.6,29.74,West,277,0.0,0.0,91,0.00,,,0.00,Wunderground v.1.13,2013-01-19 06:40:00,
2013-01-19 00:42:00,24.9,22.6,29.74,West,277,0.0,0.0,91,0.00,,,0.00,Wunderground v.1.13,2013-01-19 06:42:00,
2013-01-19 00:47:00,24.9,22.6,29.74,West,277,0.0,0.0,91,0.00,,,0.00,Wunderground v.1.13,2013-01-19 06:47:00,
2013-01-19 00:48:00,24.9,22.6,29.74,West,277,0.0,0.0,91,0.00,,,0.00,Wunderground v.1.13,2013-01-19 06:48:00,
2013-01-19 00:52:00,24.9,22.6,29.73,West,277,0.0,0.0,91,0.00,,,0.00,Wunderground v.1.13,2013-01-19 06:52:00,
2013-01-19 00:53:00,24.9,22.6,29.73,West,277,0.0,0.0,91,0.00,,,0.00,Wunderground v.1.13,2013-01-19 06:53:00,
2013-01-19 00:55:00,24.9,22.6,29.73,West,277,0.0,0.0,91,0.00,,,0.00,Wunderground v.1.13,2013-01-19 06:55:00,
2013-01-19 00:57:00,24.9,22.6,29.73,West,277,0.0,0.0,91,0.00,,,0.00,Wunderground v.1.13,2013-01-19 06:57:00,
2013-01-19 00:59:00,24.9,22.6,29.74,West,277,0.0,0.0,91,0.00,,,0.00,Wunderground v.1.13,2013-01-19 06:59:00,
2013-01-19 01:00:00,24.9,22.6,29.74,West,277,0.0,0.0,91,0.00,,,0.00,Wunderground v.1.13,2013-01-19 07:00:00,
2013-01-19 01:03:00,25.0,22.7,29.73,West,277,0.0,0.0,91,0.00,,,0.00,Wunderground v.1.13,2013-01-19 07:03:00,
2013-01-19 01:06:00,25.0,22.7,29.73,West,277,0.0,0.0,91,0.00,,,0.00,Wunderground v.1.13,2013-01-19 07:06:00,
2013-01-19 01:09:00,24.9,22.6,29.73,West,277,0.0,0.0,91,0.00,,,0.00,Wunderground v.1.13,2013-01-19 07:09:00,
2013-01-19 01:10:00,24.9,22.6,29.73,West,277,0.0,0.0,91,0.00,,,0.00,Wunderground v.1.13,2013-01-19 07:10:00,
2013-01-19 01:12:00,24.9,22.6,29.73,West,277,0.0,0.0,91,0.00,,,0.00,Wunderground v.1.13,2013-01-19 07:12:00,
2013-01-19 01:15:00,24.8,22.5,29.73,West,277,0.0,0.0,91,0.00,,,0.00,Wunderground v.1.13,2013-01-19 07:15:00,
2013-01-19 01:16:00,24.8,22.5,29.73,West,277,0.0,0.0,91,0.00,,,0.00,Wunderground v.1.13,2013-01-19 07:16:00,
2013-01-19 01:21:00,24.7,22.4,29.73,West,277,0.0,0.0,91,0.00,,,0.00,Wunderground v.1.13,2013-01-19 07:21:00,
2013-01-19 01:22:00,24.7,22.4,29.73,West,277,0.0,0.0,91,0.00,,,0.00,Wunderground v.1.13,2013-01-19 07:22:00,
2013-01-19 01:24:00,24.6,22.3,29.73,West,277,0.0,0.0,91,0.00,,,0.00,Wunderground v.1.13,2013-01-19 07:24:00,
2013-01-19 01:26:00,24.5,22.2,29.73,West,277,0.0,0.0,91,0.00,,,0.00,Wunderground v.1.13,2013-01-19 07:26:00,
2013-01-19 01:27:00,24.5,22.2,29.73,West,277,0.0,0.0,91,0.00,,,0.00,Wunderground v.1.13,2013-01-19 07:27:00,
2013-01-19 01:29:00,24.4,22.2,29.73,West,277,0.0,0.0,91,0.00,,,0.00,Wunderground v.1.13,2013-01-19 07:29:00,
2013-01-19 01:32:00,24.3,22.1,29.73,West,277,0.0,0.0,91,0.00,,,0.00,Wunderground v.1.13,2013-01-19 07:32:00,
2013-01-19 01:35:00,24.3,22.1,29.73,West,277,0.0,0.0,91,0.00,,,0.00,Wunderground v.1.13,2013-01-19 07:35:00,
2013-01-19 01:36:00,24.3,22.1,29.73,West,277,0.0,0.0,91,0.00,,,0.00,Wunderground v.1.13,2013-01-19 07:36:00,
2013-01-19 01:38:00,24.3,22.1,29.73,West,277,0.0,0.0,91,0.00,,,0.00,Wunderground v.1.13,2013-01-19 07:38:00,
2013-01-19 01:40:00,24.3,22.1,29.73,West,277,0.0,0.0,91,0.00,,,0.00,Wunderground v.1.13,2013-01-19 07:40:00,
2013-01-19 01:44:00,24.2,22.0,29.73,West,277,0.0,0.0,91,0.00,,,0.00,Wunderground v.1.13,2013-01-19 07:44:00,
2013-01-19 01:45:00,24.3,22.1,29.73,West,277,0.0,0.0,91,0.00,,,0.00,Wunderground v.1.13,2013-01-19 07:45:00,
2013-01-19 01:47:00,24.4,22.2,29.73,West,277,0.0,0.0,91,0.00,,,0.00,Wunderground v.1.13,2013-01-19 07:47:00,
2013-01-19 01:49:00,24.5,22.5,29.73,West,277,0.0,0.0,92,0.00,,,0.00,Wunderground v.1.13,2013-01-19 07:49:00,
2013-01-19 01:50:00,24.5,22.5,29.73,West,277,0.0,0.0,92,0.00,,,0.00,Wunderground v.1.13,2013-01-19 07:50:00,
2013-01-19 01:53:00,24.5,22.5,29.73,West,277,0.0,0.0,92,0.00,,,0.00,Wunderground v.1.13,2013-01-19 07:53:00,
2013-01-19 01:54:00,24.5,22.5,29.73,West,277,0.0,0.0,92,0.00,,,0.00,Wunderground v.1.13,2013-01-19 07:54:00,
2013-01-19 01:57:00,24.5,22.5,29.73,West,277,0.0,0.0,92,0.00,,,0.00,Wunderground v.1.13,2013-01-19 07:57:00,
2013-01-19 01:59:00,24.6,22.6,29.73,West,277,0.0,0.0,92,0.00,,,0.00,Wunderground v.1.13,2013-01-19 07:59:00,
2013-01-19 02:03:00,24.6,22.6,29.72,West,277,0.0,0.0,92,0.00,,,0.00,Wunderground v.1.13,2013-01-19 08:03:00,
2013-01-19 02:04:00,24.6,22.6,29.72,West,277,0.0,0.0,92,0.00,,,0.00,Wunderground v.1.13,2013-01-19 08:04:00,
2013-01-19 02:08:00,24.3,22.1,29.72,West,277,0.0,0.0,91,0.00,,,0.00,Wunderground v.1.13,2013-01-19 08:08:00,
2013-01-19 02:09:00,24.3,22.1,29.72,West,277,0.0,0.0,91,0.00,,,0.00,Wunderground v.1.13,2013-01-19 08:09:00,
2013-01-19 02:14:00,24.2,22.0,29.72,West,277,0.0,0.0,91,0.00,,,0.00,Wunderground v.1.13,2013-01-19 08:14:00,
2013-01-19 02:15:00,24.2,22.0,29.72,West,277,0.0,0.0,91,0.00,,,0.00,Wunderground v.1.13,2013-01-19 08:15:00,
2013-01-19 02:17:00,24.2,22.0,29.72,West,277,0.0,0.0,91,0.00,,,0.00,Wunderground v.1.13,2013-01-19 08:17:00,
2013-01-19 02:20:00,24.1,21.9,29.72,West,277,0.0,0.0,91,0.00,,,0.00,Wunderground v.1.13,2013-01-19 08:20:00,
2013-01-19 02:22:00,24.0,21.8,29.72,West,277,0.0,0.0,91,0.00,,,0.00,Wunderground v.1.13,2013-01-19 08:22:00,
2013-01-19 02:23:00,23.9,21.7,29.72,West,277,0.0,0.0,91,0.00,,,0.00,Wunderground v.1.13,2013-01-19 08:23:00,
2013-01-19 02:27:00,24.0,21.8,29.72,West,277,0.0,0.0,91,0.00,,,0.00,Wunderground v.1.13,2013-01-19 08:27:00,
2013-01-19 02:30:00,24.0,22.0,29.72,West,277,0.0,0.0,92,0.00,,,0.00,Wunderground v.1.13,2013-01-19 08:30:00,
2013-01-19 02:31:00,24.0,22.0,29.72,West,277,0.0,0.0,92,0.00,,,0.00,Wunderground v.1.13,2013-01-19 08:31:00,
2013-01-19 02:37:00,24.4,22.4,29.72,West,277,0.0,0.0,92,0.00,,,0.00,Wunderground v.1.13,2013-01-19 08:37:00,
2013-01-19 02:38:00,24.5,22.5,29.71,West,277,0.0,0.0,92,0.00,,,0.00,Wunderground v.1.13,2013-01-19 08:38:00,
2013-01-19 02:39:00,24.6,22.6,29.71,West,277,0.0,0.0,92,0.00,,,0.00,Wunderground v.1.13,2013-01-19 08:39:00,
2013-01-19 02:45:00,24.7,22.7,29.70,West,277,0.0,0.0,92,0.00,,,0.00,Wunderground v.1.13,2013-01-19 08:45:00,
2013-01-19 02:46:00,24.7,22.7,29.70,West,277,0.0,0.0,92,0.00,,,0.00,Wunderground v.1.13,2013-01-19 08:46:00,
2013-01-19 02:47:00,24.7,22.7,29.70,West,277,0.0,0.0,92,0.00,,,0.00,Wunderground v.1.13,2013-01-19 08:47:00,
2013-01-19 02:51:00,24.6,22.6,29.70,West,277,0.0,0.0,92,0.00,,,0.00,Wunderground v.1.13,2013-01-19 08:51:00,
2013-01-19 02:52:00,24.5,22.5,29.70,West,277,0.0,0.0,92,0.00,,,0.00,Wunderground v.1.13,2013-01-19 08:52:00,
2013-01-19 02:56:00,24.4,22.4,29.70,West,277,0.0,0.0,92,0.00,,,0.00,Wunderground v.1.13,2013-01-19 08:56:00,
2013-01-19 02:58:00,24.4,22.4,29.70,West,277,0.0,0.0,92,0.00,,,0.00,Wunderground v.1.13,2013-01-19 08:58:00,
2013-01-19 02:59:00,24.3,22.3,29.69,West,277,0.0,0.0,92,0.00,,,0.00,Wunderground v.1.13,2013-01-19 08:59:00,
2013-01-19 03:02:00,24.2,22.2,29.69,West,277,0.0,0.0,92,0.00,,,0.00,Wunderground v.1.13,2013-01-19 09:02:00,
2013-01-19 03:03:00,24.2,22.2,29.69,West,277,0.0,0.0,92,0.00,,,0.00,Wunderground v.1.13,2013-01-19 09:03:00,
2013-01-19 03:04:00,24.2,22.2,29.69,West,277,0.0,0.0,92,0.00,,,0.00,Wunderground v.1.13,2013-01-19 09:04:00,
2013-01-19 03:08:00,24.1,22.1,29.69,West,277,0.0,0.0,92,0.00,,,0.00,Wunderground v.1.13,2013-01-19 09:08:00,
2013-01-19 03:09:00,24.1,22.1,29.69,West,277,0.0,0.0,92,0.00,,,0.00,Wunderground v.1.13,2013-01-19 09:09:00,
2013-01-19 03:11:00,24.1,22.1,29.69,West,277,0.0,0.0,92,0.00,,,0.00,Wunderground v.1.13,2013-01-19 09:11:00,
2013-01-19 03:13:00,24.2,22.2,29.69,West,277,0.0,0.0,92,0.00,,,0.00,Wunderground v.1.13,2013-01-19 09:13:00,
2013-01-19 03:15:00,24.2,22.2,29.69,West,277,0.0,0.0,92,0.00,,,0.00,Wunderground v.1.13,2013-01-19 09:15:00,
2013-01-19 03:17:00,24.2,22.2,29.68,West,277,0.0,0.0,92,0.00,,,0.00,Wunderground v.1.13,2013-01-19 09:17:00,
2013-01-19 03:20:00,24.2,22.2,29.68,SSE,168,1.0,1.0,92,0.00,,,0.00,Wunderground v.1.13,2013-01-19 09:20:00,
2013-01-19 03:21:00,24.2,22.2,29.68,SSE,168,1.0,2.0,92,0.00,,,0.00,Wunderground v.1.13,2013-01-19 09:21:00,
2013-01-19 03:26:00,24.3,22.3,29.68,South,169,1.0,1.0,92,0.00,,,0.00,Wunderground v.1.13,2013-01-19 09:26:00,
2013-01-19 03:27:00,24.4,22.4,29.68,South,169,1.0,1.0,92,0.00,,,0.00,Wunderground v.1.13,2013-01-19 09:27:00,
2013-01-19 03:29:00,24.6,22.6,29.67,SSE,168,1.0,1.0,92,0.00,,,0.00,Wunderground v.1.13,2013-01-19 09:29:00,
2013-01-19 03:33:00,24.8,22.8,29.67,South,169,1.0,1.0,92,0.00,,,0.00,Wunderground v.1.13,2013-01-19 09:33:00,
2013-01-19 03:36:00,24.9,22.9,29.66,South,169,1.0,4.0,92,0.00,,,0.00,Wunderground v.1.13,2013-01-19 09:36:00,
2013-01-19 03:38:00,25.1,23.1,29.66,South,169,1.0,4.0,92,0.00,,,0.00,Wunderground v.1.13,2013-01-19 09:38:00,
2013-01-19 03:41:00,25.3,23.6,29.66,SSE,164,1.0,1.0,93,0.00,,,0.00,Wunderground v.1.13,2013-01-19 09:41:00,
2013-01-19 03:42:00,25.4,23.7,29.66,SSE,164,1.0,2.0,93,0.00,,,0.00,Wunderground v.1.13,2013-01-19 09:42:00,
2013-01-19 03:46:00,25.7,24.0,29.66,SSE,164,1.0,1.0,93,0.00,,,0.00,Wunderground v.1.13,2013-01-19 09:46:00,
2013-01-19 03:47:00,25.8,24.1,29.66,SSE,164,1.0,1.0,93,0.00,,,0.00,Wunderground v.1.13,2013-01-19 09:47:00,
2013-01-19 03:48:00,25.8,24.1,29.66,SSE,164,1.0,1.0,93,0.00,,,0.00,Wunderground v.1.13,2013-01-19 09:48:00,
2013-01-19 03:53:00,26.1,24.4,29.66,SSE,164,0.0,1.0,93,0.00,,,0.00,Wunderground v.1.13,2013-01-19 09:53:00,
2013-01-19 03:54:00,26.1,24.4,29.66,SSE,164,0.0,1.0,93,0.00,,,0.00,Wunderground v.1.13,2013-01-19 09:54:00,
2013-01-19 03:55:00,26.2,24.5,29.66,SSE,164,0.0,0.0,93,0.00,,,0.00,Wunderground v.1.13,2013-01-19 09:55:00,
2013-01-19 03:59:00,26.2,24.5,29.65,SSE,164,0.0,0.0,93,0.00,,,0.00,Wunderground v.1.13,2013-01-19 09:59:00,
2013-01-19 04:00:00,26.2,24.2,29.65,SSE,164,0.0,0.0,92,0.00,,,0.00,Wunderground v.1.13,2013-01-19 10:00:00,
2013-01-19 04:02:00,26.2,24.2,29.67,SSE,164,0.0,1.0,92,0.00,,,0.00,Wunderground v.1.13,2013-01-19 10:02:00,
2013-01-19 04:07:00,26.4,24.7,29.67,SSW,207,1.0,1.0,93,0.00,,,0.00,Wunderground v.1.13,2013-01-19 10:07:00,
2013-01-19 04:09:00,26.5,24.8,29.67,SW,234,1.0,4.0,93,0.00,,,0.00,Wunderground v.1.13,2013-01-19 10:09:00,
2013-01-19 04:10:00,26.6,24.8,29.67,SW,235,1.0,1.0,93,0.00,,,0.00,Wunderground v.1.13,2013-01-19 10:10:00,
2013-01-19 04:12:00,26.7,24.9,29.67,SW,233,2.0,5.0,93,0.00,,,0.00,Wunderground v.1.13,2013-01-19 10:12:00,
2013-01-19 04:15:00,26.9,25.1,29.67,WSW,241,2.0,2.0,93,0.00,,,0.00,Wunderground v.1.13,2013-01-19 10:15:00,
2013-01-19 04:17:00,26.9,25.1,29.68,WSW,241,2.0,3.0,93,0.00,,,0.00,Wunderground v.1.13,2013-01-19 10:17:00,
2013-01-19 04:18:00,26.9,24.9,29.68,WSW,241,2.0,3.0,92,0.00,,,0.00,Wunderground v.1.13,2013-01-19 10:18:00,
2013-01-19 04:23:00,26.9,24.9,29.68,WSW,244,3.0,5.0,92,0.00,,,0.00,Wunderground v.1.13,2013-01-19 10:23:00,
2013-01-19 04:24:00,26.9,24.9,29.68,WSW,244,3.0,5.0,92,0.00,,,0.00,Wunderground v.1.13,2013-01-19 10:24:00,
2013-01-19 04:27:00,26.9,24.9,29.69,WSW,247,4.0,5.0,92,0.00,,,0.00,Wunderground v.1.13,2013-01-19 10:27:00,
2013-01-19 04:28:00,26.8,24.8,29.70,WSW,256,4.0,5.0,92,0.00,,,0.00,Wunderground v.1.13,2013-01-19 10:28:00,
2013-01-19 04:29:00,26.8,24.8,29.70,West,261,4.0,5.0,92,0.00,,,0.00,Wunderground v.1.13,2013-01-19 10:29:00,
2013-01-19 04:30:00,26.8,24.8,29.70,West,264,4.0,4.0,92,0.00,,,0.00,Wunderground v.1.13,2013-01-19 10:30:00,
2013-01-19 04:34:00,26.7,24.7,29.70,West,263,4.0,5.0,92,0.00,,,0.00,Wunderground v.1.13,2013-01-19 10:34:00,
2013-01-19 04:35:00,26.7,24.7,29.70,West,263,4.0,4.0,92,0.00,,,0.00,Wunderground v.1.13,2013-01-19 10:35:00,
2013-01-19 04:39:00,26.7,24.7,29.70,West,262,4.0,5.0,92,0.00,,,0.00,Wunderground v.1.13,2013-01-19 10:39:00,
2013-01-19 04:41:00,26.7,24.7,29.70,West,262,4.0,4.0,92,0.00,,,0.00,Wunderground v.1.13,2013-01-19 10:41:00,
2013-01-19 04:43:00,26.7,24.7,29.70,West,261,4.0,4.0,92,0.00,,,0.00,Wunderground v.1.13,2013-01-19 10:43:00,
2013-01-19 04:46:00,26.7,24.7,29.69,West,261,3.0,3.0,92,0.00,,,0.00,Wunderground v.1.13,2013-01-19 10:46:00,
2013-01-19 04:48:00,26.7,24.7,29.69,West,261,2.0,3.0,92,0.00,,,0.00,Wunderground v.1.13,2013-01-19 10:48:00,
2013-01-19 04:50:00,26.8,24.8,29.68,West,261,1.0,1.0,92,0.00,,,0.00,Wunderground v.1.13,2013-01-19 10:50:00,
2013-01-19 04:51:00,26.8,24.8,29.68,West,262,1.0,1.0,92,0.00,,,0.00,Wunderground v.1.13,2013-01-19 10:51:00,
2013-01-19 04:54:00,26.7,24.7,29.68,West,261,0.0,2.0,92,0.00,,,0.00,Wunderground v.1.13,2013-01-19 10:54:00,
2013-01-19 04:57:00,26.6,24.6,29.68,West,261,1.0,4.0,92,0.00,,,0.00,Wunderground v.1.13,2013-01-19 10:57:00,
2013-01-19 04:58:00,26.5,24.5,29.68,West,261,1.0,4.0,92,0.00,,,0.00,Wunderground v.1.13,2013-01-19 10:58:00,
2013-01-19 05:03:00,26.4,24.4,29.69,West,265,3.0,5.0,92,0.00,,,0.00,Wunderground v.1.13,2013-01-19 11:03:00,
2013-01-19 05:04:00,26.4,24.4,29.69,West,265,3.0,5.0,92,0.00,,,0.00,Wunderground v.1.13,2013-01-19 11:04:00,
2013-01-19 05:09:00,26.2,23.9,29.69,West,265,3.0,3.0,91,0.00,,,0.00,Wunderground v.1.13,2013-01-19 11:09:00,
2013-01-19 05:12:00,26.1,23.8,29.70,West,264,2.0,3.0,91,0.00,,,0.00,Wunderground v.1.13,2013-01-19 11:12:00,
2013-01-19 06:47:00,24.9,23.4,29.67,WSW,254,0.0,0.0,94,0.00,,,0.00,Wunderground v.1.13,2013-01-19 12:47:00,
2013-01-19 06:48:00,24.8,23.1,29.67,WSW,254,0.0,0.0,93,0.00,,,0.00,Wunderground v.1.13,2013-01-19 12:48:00,
2013-01-19 06:50:00,24.7,23.0,29.67,WSW,254,0.0,1.0,93,0.00,,,0.00,Wunderground v.1.13,2013-01-19 12:50:00,
2013-01-19 06:53:00,24.5,22.8,29.68,WSW,254,1.0,2.0,93,0.00,,,0.00,Wunderground v.1.13,2013-01-19 12:53:00,
2013-01-19 06:54:00,24.4,22.7,29.68,WSW,253,1.0,2.0,93,0.00,,,0.00,Wunderground v.1.13,2013-01-19 12:54:00,
2013-01-19 06:59:00,24.0,22.3,29.67,WSW,254,1.0,1.0,93,0.00,,,0.00,Wunderground v.1.13,2013-01-19 12:59:00,
2013-01-19 07:02:00,23.9,22.2,29.68,WSW,254,1.0,1.0,93,0.00,,,0.00,Wunderground v.1.13,2013-01-19 13:02:00,
2013-01-19 07:05:00,23.8,22.1,29.68,WSW,254,0.0,0.0,93,0.00,,,0.00,Wunderground v.1.13,2013-01-19 13:05:00,
2013-01-19 07:09:00,23.6,21.9,29.67,WSW,254,0.0,0.0,93,0.00,,,0.00,Wunderground v.1.13,2013-01-19 13:09:00,
2013-01-19 07:10:00,23.5,21.8,29.67,WSW,254,0.0,0.0,93,0.00,,,0.00,Wunderground v.1.13,2013-01-19 13:10:00,
2013-01-19 07:16:00,23.3,21.6,29.67,WSW,254,0.0,0.0,93,0.00,,,0.00,Wunderground v.1.13,2013-01-19 13:16:00,
2013-01-19 07:19:00,23.3,21.6,29.66,WSW,254,0.0,0.0,93,0.00,,,0.00,Wunderground v.1.13,2013-01-19 13:19:00,
2013-01-19 07:21:00,23.2,21.5,29.66,WSW,254,0.0,0.0,93,0.00,,,0.00,Wunderground v.1.13,2013-01-19 13:21:00,
2013-01-19 07:25:00,22.9,21.2,29.67,WSW,254,0.0,0.0,93,0.00,,,0.00,Wunderground v.1.13,2013-01-19 13:25:00,
2013-01-19 07:26:00,22.8,21.1,29.67,WSW,254,0.0,0.0,93,0.00,,,0.00,Wunderground v.1.13,2013-01-19 13:26:00,
2013-01-19 07:27:00,22.7,21.0,29.67,WSW,254,0.0,0.0,93,0.00,,,0.00,Wunderground v.1.13,2013-01-19 13:27:00,
2013-01-19 07:31:00,22.7,21.0,29.67,WSW,253,0.0,1.0,93,0.00,,,0.00,Wunderground v.1.13,2013-01-19 13:31:00,
2013-01-19 07:32:00,22.7,21.0,29.67,WSW,254,0.0,1.0,93,0.00,,,0.00,Wunderground v.1.13,2013-01-19 13:32:00,
2013-01-19 07:37:00,22.9,21.2,29.67,WSW,253,0.0,0.0,93,0.00,,,0.00,Wunderground v.1.13,2013-01-19 13:37:00,
2013-01-19 07:38:00,22.9,21.2,29.67,WSW,254,0.0,0.0,93,0.00,,,0.00,Wunderground v.1.13,2013-01-19 13:38:00,
2013-01-19 07:39:00,22.9,21.2,29.67,WSW,254,0.0,0.0,93,0.00,,,0.00,Wunderground v.1.13,2013-01-19 13:39:00,
2013-01-19 07:43:00,22.9,21.2,29.67,WSW,254,0.0,0.0,93,0.00,,,0.00,Wunderground v.1.13,2013-01-19 13:43:00,
2013-01-19 07:44:00,22.9,21.2,29.67,WSW,254,0.0,0.0,93,0.00,,,0.00,Wunderground v.1.13,2013-01-19 13:44:00,
2013-01-19 07:45:00,22.9,21.2,29.66,WSW,254,0.0,0.0,93,0.00,,,0.00,Wunderground v.1.13,2013-01-19 13:45:00,
2013-01-19 07:49:00,22.9,21.2,29.67,WSW,253,0.0,0.0,93,0.00,,,0.00,Wunderground v.1.13,2013-01-19 13:49:00,
2013-01-19 07:50:00,22.9,21.2,29.67,WSW,254,0.0,0.0,93,0.00,,,0.00,Wunderground v.1.13,2013-01-19 13:50:00,
2013-01-19 07:52:00,22.9,21.2,29.67,WSW,254,0.0,0.0,93,0.00,,,0.00,Wunderground v.1.13,2013-01-19 13:52:00,
2013-01-19 07:53:00,23.0,21.3,29.67,WSW,254,0.0,0.0,93,0.00,,,0.00,Wunderground v.1.13,2013-01-19 13:53:00,
2013-01-19 07:58:00,23.3,21.8,29.67,WSW,253,0.0,0.0,94,0.00,,,0.00,Wunderground v.1.13,2013-01-19 13:58:00,
2013-01-19 07:59:00,23.3,21.8,29.67,WSW,254,0.0,0.0,94,0.00,,,0.00,Wunderground v.1.13,2013-01-19 13:59:00,
2013-01-19 08:03:00,23.5,22.0,29.67,WSW,254,0.0,0.0,94,0.00,,,0.00,Wunderground v.1.13,2013-01-19 14:03:00,
2013-01-19 08:04:00,23.5,22.0,29.67,WSW,253,0.0,0.0,94,0.00,,,0.00,Wunderground v.1.13,2013-01-19 14:04:00,
2013-01-19 08:08:00,23.5,22.0,29.67,WSW,254,0.0,0.0,94,0.00,,,0.00,Wunderground v.1.13,2013-01-19 14:08:00,
2013-01-19 08:09:00,23.5,22.0,29.67,WSW,254,0.0,0.0,94,0.00,,,0.00,Wunderground v.1.13,2013-01-19 14:09:00,
2013-01-19 08:15:00,23.7,22.2,29.67,WSW,253,0.0,2.0,94,0.00,,,0.00,Wunderground v.1.13,2013-01-19 14:15:00,
2013-01-19 08:16:00,23.8,22.3,29.67,WSW,253,0.0,2.0,94,0.00,,,0.00,Wunderground v.1.13,2013-01-19 14:16:00,
2013-01-19 08:17:00,23.9,22.4,29.67,WSW,254,0.0,2.0,94,0.00,,,0.00,Wunderground v.1.13,2013-01-19 14:17:00,
2013-01-19 08:18:00,23.9,22.4,29.67,WSW,254,0.0,2.0,94,0.00,,,0.00,Wunderground v.1.13,2013-01-19 14:18:00,
2013-01-19 08:22:00,24.2,22.7,29.67,WSW,253,0.0,0.0,94,0.00,,,0.00,Wunderground v.1.13,2013-01-19 14:22:00,
2013-01-19 08:23:00,24.3,22.8,29.67,WSW,254,0.0,0.0,94,0.00,,,0.00,Wunderground v.1.13,2013-01-19 14:23:00,
2013-01-19 08:28:00,24.6,23.1,29.67,WSW,254,0.0,0.0,94,0.00,,,0.00,Wunderground v.1.13,2013-01-19 14:28:00,
2013-01-19 08:29:00,24.7,23.2,29.66,WSW,254,0.0,0.0,94,0.00,,,0.00,Wunderground v.1.13,2013-01-19 14:29:00,
2013-01-19 08:30:00,24.8,23.3,29.66,WSW,253,0.0,0.0,94,0.00,,,0.00,Wunderground v.1.13,2013-01-19 14:30:00,
2013-01-19 08:33:00,25.0,23.5,29.67,WSW,253,1.0,2.0,94,0.00,,,0.00,Wunderground v.1.13,2013-01-19 14:33:00,
2013-01-19 08:36:00,25.2,23.7,29.67,WSW,254,1.0,3.0,94,0.00,,,0.00,Wunderground v.1.13,2013-01-19 14:36:00,
2013-01-19 08:37:00,25.3,23.8,29.66,WSW,253,1.0,3.0,94,0.00,,,0.00,Wunderground v.1.13,2013-01-19 14:37:00,
2013-01-19 08:41:00,25.5,24.0,29.67,WSW,256,2.0,2.0,94,0.00,,,0.00,Wunderground v.1.13,2013-01-19 14:41:00,
2013-01-19 08:45:00,25.6,24.1,29.67,WSW,255,2.0,5.0,94,0.00,,,0.00,Wunderground v.1.13,2013-01-19 14:45:00,
2013-01-19 08:48:00,25.6,24.1,29.67,WSW,257,3.0,5.0,94,0.00,,,0.00,Wunderground v.1.13,2013-01-19 14:48:00,
2013-01-19 08:49:00,25.6,24.1,29.67,WSW,257,3.0,5.0,94,0.00,,,0.00,Wunderground v.1.13,2013-01-19 14:49:00,
2013-01-19 08:54:00,25.8,24.3,29.67,WSW,248,4.0,8.0,94,0.00,,,0.00,Wunderground v.1.13,2013-01-19 14:54:00,
2013-01-19 08:57:00,26.0,24.5,29.67,WSW,257,5.0,6.0,94,0.00,,,0.00,Wunderground v.1.13,2013-01-19 14:57:00,
2013-01-19 09:00:00,26.1,24.6,29.67,WSW,256,4.0,4.0,94,0.00,,,0.00,Wunderground v.1.13,2013-01-19 15:00:00,
2013-01-19 09:02:00,26.1,24.6,29.67,WSW,256,4.0,4.0,94,0.00,,,0.00,Wunderground v.1.13,2013-01-19 15:02:00,
2013-01-19 09:03:00,26.2,24.7,29.67,WSW,252,4.0,8.0,94,0.00,,,0.00,Wunderground v.1.13,2013-01-19 15:03:00,
2013-01-19 09:05:00,26.3,24.8,29.67,WSW,256,4.0,5.0,94,0.00,,,0.00,Wunderground v.1.13,2013-01-19 15:05:00,
2013-01-19 09:09:00,26.5,25.0,29.67,WSW,257,4.0,7.0,94,0.00,,,0.00,Wunderground v.1.13,2013-01-19 15:09:00,
2013-01-19 09:11:00,26.5,25.0,29.67,WSW,257,4.0,5.0,94,0.00,,,0.00,Wunderground v.1.13,2013-01-19 15:11:00,
2013-01-19 09:12:00,26.6,25.1,29.67,WSW,257,4.0,5.0,94,0.00,,,0.00,Wunderground v.1.13,2013-01-19 15:12:00,
2013-01-19 09:16:00,26.7,25.2,29.67,WSW,249,4.0,4.0,94,0.00,,,0.00,Wunderground v.1.13,2013-01-19 15:16:00,
2013-01-19 09:17:00,26.7,25.2,29.67,WSW,249,4.0,4.0,94,0.00,,,0.00,Wunderground v.1.13,2013-01-19 15:17:00,
2013-01-19 09:18:00,26.8,25.3,29.67,WSW,248,3.0,5.0,94,0.00,,,0.00,Wunderground v.1.13,2013-01-19 15:18:00,
2013-01-19 09:23:00,27.1,25.6,29.67,WSW,254,3.0,4.0,94,0.00,,,0.00,Wunderground v.1.13,2013-01-19 15:23:00,
2013-01-19 09:25:00,27.2,25.7,29.67,WSW,254,3.0,5.0,94,0.00,,,0.00,Wunderground v.1.13,2013-01-19 15:25:00,
2013-01-19 09:27:00,27.3,25.8,29.68,WSW,255,4.0,9.0,94,0.00,,,0.00,Wunderground v.1.13,2013-01-19 15:27:00,
2013-01-19 09:28:00,27.4,25.9,29.68,WSW,253,4.0,9.0,94,0.00,,,0.00,Wunderground v.1.13,2013-01-19 15:28:00,
2013-01-19 09:30:00,27.6,25.8,29.68,WSW,254,5.0,5.0,93,0.00,,,0.00,Wunderground v.1.13,2013-01-19 15:30:00,
2013-01-19 09:32:00,27.6,26.1,29.68,WSW,250,5.0,5.0,94,0.00,,,0.00,Wunderground v.1.13,2013-01-19 15:32:00,
2013-01-19 09:35:00,27.8,26.0,29.67,WSW,247,6.0,6.0,93,0.00,,,0.00,Wunderground v.1.13,2013-01-19 15:35:00,
2013-01-19 09:39:00,28.1,26.3,29.68,WSW,257,6.0,7.0,93,0.00,,,0.00,Wunderground v.1.13,2013-01-19 15:39:00,
2013-01-19 09:42:00,28.3,26.5,29.68,WSW,246,6.0,7.0,93,0.00,,,0.00,Wunderground v.1.13,2013-01-19 15:42:00,
2013-01-19 09:46:00,28.6,26.6,29.69,West,264,6.0,6.0,92,0.00,,,0.00,Wunderground v.1.13,2013-01-19 15:46:00,
2013-01-19 09:47:00,28.7,26.7,29.69,WSW,251,6.0,7.0,92,0.00,,,0.00,Wunderground v.1.13,2013-01-19 15:47:00,
2013-01-19 09:48:00,28.9,26.9,29.69,West,264,6.0,7.0,92,0.00,,,0.00,Wunderground v.1.13,2013-01-19 15:48:00,
2013-01-19 09:53:00,29.6,27.3,29.69,WSW,252,7.0,9.0,91,0.00,,,0.00,Wunderground v.1.13,2013-01-19 15:53:00,
2013-01-19 09:55:00,29.8,27.5,29.69,WSW,254,7.0,9.0,91,0.00,,,0.00,Wunderground v.1.13,2013-01-19 15:55:00,
2013-01-19 09:56:00,29.8,27.2,29.69,WSW,252,8.0,9.0,90,0.00,,,0.00,Wunderground v.1.13,2013-01-19 15:56:00,
2013-01-19 09:59:00,30.1,27.5,29.69,WSW,252,7.0,9.0,90,0.00,,,0.00,Wunderground v.1.13,2013-01-19 15:59:00,
2013-01-19 10:03:00,30.5,27.6,29.69,WSW,242,7.0,9.0,89,0.00,,,0.00,Wunderground v.1.13,2013-01-19 16:03:00,
2013-01-19 10:04:00,30.6,27.7,29.69,West,259,7.0,9.0,89,0.00,,,0.00,Wunderground v.1.13,2013-01-19 16:04:00,
2013-01-19 10:07:00,30.9,27.8,29.69,WSW,254,7.0,12.0,88,0.00,,,0.00,Wunderground v.1.13,2013-01-19 16:07:00,
2013-01-19 10:09:00,31.1,27.7,29.69,WSW,249,8.0,12.0,87,0.00,,,0.00,Wunderground v.1.13,2013-01-19 16:09:00,
2013-01-19 10:11:00,31.2,27.8,29.70,WSW,252,8.0,13.0,87,0.00,,,0.00,Wunderground v.1.13,2013-01-19 16:11:00,
2013-01-19 10:12:00,31.4,28.0,29.70,WSW,257,8.0,13.0,87,0.00,,,0.00,Wunderground v.1.13,2013-01-19 16:12:00,
2013-01-19 10:17:00,31.8,28.1,29.70,WSW,240,9.0,9.0,86,0.00,,,0.00,Wunderground v.1.13,2013-01-19 16:17:00,
2013-01-19 10:18:00,31.8,28.1,29.69,West,275,9.0,11.0,86,0.00,,,0.00,Wunderground v.1.13,2013-01-19 16:18:00,
2013-01-19 10:22:00,32.0,28.0,29.70,WSW,256,9.0,13.0,85,0.00,,,0.00,Wunderground v.1.13,2013-01-19 16:22:00,
2013-01-19 10:23:00,32.1,27.8,29.70,West,260,9.0,13.0,84,0.00,,,0.00,Wunderground v.1.13,2013-01-19 16:23:00,
2013-01-19 10:24:00,32.1,27.8,29.70,West,264,10.0,13.0,84,0.00,,,0.00,Wunderground v.1.13,2013-01-19 16:24:00,
2013-01-19 10:28:00,32.2,27.9,29.71,WSW,248,9.0,10.0,84,0.00,,,0.00,Wunderground v.1.13,2013-01-19 16:28:00,
2013-01-19 10:30:00,32.2,27.9,29.71,WSW,254,10.0,19.0,84,0.00,,,0.00,Wunderground v.1.13,2013-01-19 16:30:00,
2013-01-19 10:31:00,32.2,27.9,29.71,WSW,247,10.0,19.0,84,0.00,,,0.00,Wunderground v.1.13,2013-01-19 16:31:00,
2013-01-19 10:32:00,32.2,27.9,29.71,West,276,10.0,19.0,84,0.00,,,0.00,Wunderground v.1.13,2013-01-19 16:32:00,
2013-01-19 10:37:00,32.1,27.5,29.70,WSW,244,11.0,12.0,83,0.00,,,0.00,Wunderground v.1.13,2013-01-19 16:37:00,
2013-01-19 10:38:00,32.1,27.5,29.70,West,281,11.0,12.0,83,0.00,,,0.00,Wunderground v.1.13,2013-01-19 16:38:00,
2013-01-19 10:39:00,32.1,27.5,29.70,West,276,11.0,12.0,83,0.00,,,0.00,Wunderground v.1.13,2013-01-19 16:39:00,
2013-01-19 10:42:00,32.0,27.4,29.70,West,273,11.0,14.0,83,0.00,,,0.00,Wunderground v.1.13,2013-01-19 16:42:00,
2013-01-19 10:43:00,32.0,27.4,29.70,WSW,255,11.0,14.0,83,0.00,,,0.00,Wunderground v.1.13,2013-01-19 16:43:00,
2013-01-19 10:46:00,32.0,27.4,29.70,WSW,252,10.0,13.0,83,0.00,,,0.00,Wunderground v.1.13,2013-01-19 16:46:00,
2013-01-19 10:50:00,32.2,27.6,29.70,WSW,248,10.0,13.0,83,0.00,,,0.00,Wunderground v.1.13,2013-01-19 16:50:00,
2013-01-19 10:51:00,32.3,27.7,29.70,WSW,241,10.0,13.0,83,0.00,,,0.00,Wunderground v.1.13,2013-01-19 16:51:00,
2013-01-19 10:52:00,32.3,27.7,29.70,SW,236,10.0,14.0,83,0.00,,,0.00,Wunderground v.1.13,2013-01-19 16:52:00,
2013-01-19 10:55:00,32.4,27.8,29.69,West,263,10.0,10.0,83,0.00,,,0.00,Wunderground v.1.13,2013-01-19 16:55:00,
2013-01-19 10:58:00,32.4,27.8,29.69,West,273,10.0,15.0,83,0.00,,,0.00,Wunderground v.1.13,2013-01-19 16:58:00,
2013-01-19 11:00:00,32.4,27.8,29.69,WSW,246,9.0,12.0,83,0.00,,,0.00,Wunderground v.1.13,2013-01-19 17:00:00,
2013-01-19 11:03:00,32.4,27.8,29.70,West,262,9.0,12.0,83,0.00,,,0.00,Wunderground v.1.13,2013-01-19 17:03:00,
2013-01-19 11:07:00,32.5,27.9,29.70,West,267,10.0,12.0,83,0.00,,,0.00,Wunderground v.1.13,2013-01-19 17:07:00,
2013-01-19 11:09:00,32.5,27.9,29.70,WNW,303,10.0,14.0,83,0.00,,,0.00,Wunderground v.1.13,2013-01-19 17:09:00,
2013-01-19 11:14:00,32.6,28.0,29.70,WNW,287,11.0,11.0,83,0.00,,,0.00,Wunderground v.1.13,2013-01-19 17:14:00,
2013-01-19 11:15:00,32.6,28.0,29.70,West,269,11.0,11.0,83,0.00,,,0.00,Wunderground v.1.13,2013-01-19 17:15:00,
2013-01-19 11:20:00,32.6,28.0,29.69,West,269,11.0,11.0,83,0.00,,,0.00,Wunderground v.1.13,2013-01-19 17:20:00,
2013-01-19 11:23:00,32.6,28.0,29.69,WSW,253,10.0,11.0,83,0.00,,,0.00,Wunderground v.1.13,2013-01-19 17:23:00,
2013-01-19 11:27:00,32.7,28.1,29.69,West,268,10.0,11.0,83,0.00,,,0.00,Wunderground v.1.13,2013-01-19 17:27:00,
2013-01-19 11:30:00,32.9,28.3,29.69,West,269,9.0,9.0,83,0.00,,,0.00,Wunderground v.1.13,2013-01-19 17:30:00,
2013-01-19 11:33:00,32.9,28.3,29.69,WSW,248,9.0,10.0,83,0.00,,,0.00,Wunderground v.1.13,2013-01-19 17:33:00,
2013-01-19 11:37:00,33.0,28.4,29.69,WSW,250,8.0,12.0,83,0.00,,,0.00,Wunderground v.1.13,2013-01-19 17:37:00,
2013-01-19 11:38:00,33.0,28.4,29.68,West,259,8.0,12.0,83,0.00,,,0.00,Wunderground v.1.13,2013-01-19 17:38:00,
2013-01-19 11:43:00,33.2,28.6,29.68,WSW,252,9.0,11.0,83,0.00,,,0.00,Wunderground v.1.13,2013-01-19 17:43:00,
2013-01-19 11:45:00,33.4,28.8,29.68,West,261,9.0,9.0,83,0.00,,,0.00,Wunderground v.1.13,2013-01-19 17:45:00,
2013-01-19 11:55:00,33.9,29.0,29.68,West,267,9.0,9.0,82,0.00,,,0.00,Wunderground v.1.13,2013-01-19 17:55:00,
2013-01-19 11:58:00,34.0,29.1,29.68,SW,236,9.0,18.0,82,0.00,,,0.00,Wunderground v.1.13,2013-01-19 17:58:00,
2013-01-19 12:00:00,34.1,29.2,29.68,SW,236,10.0,13.0,82,0.00,,,0.00,Wunderground v.1.13,2013-01-19 18:00:00,
2013-01-19 12:08:00,34.3,29.4,29.68,WSW,246,10.0,15.0,82,0.00,,,0.00,Wunderground v.1.13,2013-01-19 18:08:00,
2013-01-19 12:12:00,34.5,29.6,29.67,West,267,9.0,10.0,82,0.00,,,0.00,Wunderground v.1.13,2013-01-19 18:12:00,
2013-01-19 12:14:00,34.6,29.4,29.67,West,275,10.0,15.0,81,0.00,,,0.00,Wunderground v.1.13,2013-01-19 18:14:00,
2013-01-19 12:19:00,34.8,29.3,29.67,WSW,248,9.0,10.0,80,0.00,,,0.00,Wunderground v.1.13,2013-01-19 18:19:00,
2013-01-19 12:25:00,35.2,29.3,29.67,West,271,9.0,12.0,79,0.00,,,0.00,Wunderground v.1.13,2013-01-19 18:25:00,
2013-01-19 12:29:00,35.3,29.4,29.67,West,273,10.0,15.0,79,0.00,,,0.00,Wunderground v.1.13,2013-01-19 18:29:00,
2013-01-19 12:30:00,35.3,29.1,29.67,West,268,10.0,16.0,78,0.00,,,0.00,Wunderground v.1.13,2013-01-19 18:30:00,
2013-01-19 12:35:00,35.3,29.1,29.67,West,270,10.0,10.0,78,0.00,,,0.00,Wunderground v.1.13,2013-01-19 18:35:00,
2013-01-19 12:38:00,35.2,29.0,29.67,WNW,287,10.0,10.0,78,0.00,,,0.00,Wunderground v.1.13,2013-01-19 18:38:00,
2013-01-19 12:42:00,35.3,28.8,29.67,WSW,250,11.0,16.0,77,0.00,,,0.00,Wunderground v.1.13,2013-01-19 18:42:00,
2013-01-19 12:49:00,35.3,28.5,29.67,West,269,12.0,15.0,76,0.00,,,0.00,Wunderground v.1.13,2013-01-19 18:49:00,
2013-01-19 12:50:00,35.3,28.5,29.67,West,272,12.0,12.0,76,0.00,,,0.00,Wunderground v.1.13,2013-01-19 18:50:00,
2013-01-19 12:55:00,35.4,28.6,29.67,West,270,11.0,11.0,76,0.00,,,0.00,Wunderground v.1.13,2013-01-19 18:55:00,
2013-01-19 13:02:00,35.5,29.0,29.67,WSW,257,11.0,18.0,77,0.00,,,0.00,Wunderground v.1.13,2013-01-19 19:02:00,
2013-01-19 13:05:00,35.6,28.8,29.67,WNW,295,11.0,11.0,76,0.00,,,0.00,Wunderground v.1.13,2013-01-19 19:05:00,
2013-01-19 13:08:00,35.6,28.8,29.67,WNW,284,11.0,24.0,76,0.00,,,0.00,Wunderground v.1.13,2013-01-19 19:08:00,
2013-01-19 13:13:00,35.7,28.6,29.67,West,281,12.0,15.0,75,0.00,,,0.00,Wunderground v.1.13,2013-01-19 19:13:00,
2013-01-19 13:14:00,35.7,28.6,29.67,West,265,12.0,15.0,75,0.00,,,0.00,Wunderground v.1.13,2013-01-19 19:14:00,
2013-01-19 13:19:00,35.6,28.5,29.67,WSW,250,13.0,18.0,75,0.00,,,0.00,Wunderground v.1.13,2013-01-19 19:19:00,
2013-01-19 13:21:00,35.6,28.5,29.67,SW,222,14.0,22.0,75,0.00,,,0.00,Wunderground v.1.13,2013-01-19 19:21:00,
2013-01-19 13:27:00,34.9,27.8,29.68,WSW,248,16.0,26.0,75,0.00,,,0.00,Wunderground v.1.13,2013-01-19 19:27:00,
2013-01-19 13:28:00,34.8,27.7,29.68,West,273,17.0,26.0,75,0.00,,,0.00,Wunderground v.1.13,2013-01-19 19:28:00,
2013-01-19 13:32:00,34.2,27.4,29.68,West,268,16.0,21.0,76,0.00,,,0.00,Wunderground v.1.13,2013-01-19 19:32:00,
2013-01-19 13:37:00,32.4,26.0,29.68,West,264,17.0,21.0,77,0.00,,,0.00,Wunderground v.1.13,2013-01-19 19:37:00,
2013-01-19 13:43:00,31.5,26.0,29.69,WNW,282,15.0,21.0,80,0.00,,,0.00,Wunderground v.1.13,2013-01-19 19:43:00,
2013-01-19 13:45:00,31.2,25.4,29.69,West,261,16.0,16.0,79,0.00,,,0.00,Wunderground v.1.13,2013-01-19 19:45:00,
2013-01-19 13:50:00,30.9,25.2,29.70,West,267,15.0,15.0,79,0.00,,,0.00,Wunderground v.1.13,2013-01-19 19:50:00,
2013-01-19 13:52:00,30.7,25.0,29.70,West,264,15.0,20.0,79,0.00,,,0.00,Wunderground v.1.13,2013-01-19 19:52:00,
2013-01-19 13:55:00,30.0,24.0,29.70,WSW,250,15.0,15.0,78,0.00,,,0.00,Wunderground v.1.13,2013-01-19 19:55:00,
2013-01-19 14:00:00,29.0,22.7,29.71,West,280,15.0,15.0,77,0.00,,,0.00,Wunderground v.1.13,2013-01-19 20:00:00,
2013-01-19 14:03:00,28.4,21.8,29.71,WNW,295,13.0,27.0,76,0.00,,,0.00,Wunderground v.1.13,2013-01-19 20:03:00,
2013-01-19 14:07:00,27.7,20.5,29.72,WNW,286,15.0,23.0,74,0.00,,,0.00,Wunderground v.1.13,2013-01-19 20:07:00,
2013-01-19 14:11:00,27.1,19.9,29.72,West,279,15.0,16.0,74,0.00,,,0.00,Wunderground v.1.13,2013-01-19 20:11:00,
2013-01-19 14:14:00,26.6,19.4,29.72,West,261,16.0,20.0,74,0.00,,,0.00,Wunderground v.1.13,2013-01-19 20:14:00,
2013-01-19 14:22:00,25.3,17.2,29.74,WSW,253,17.0,28.0,71,0.00,,,0.00,Wunderground v.1.13,2013-01-19 20:22:00,
2013-01-19 14:23:00,25.1,17.0,29.73,WNW,283,16.0,28.0,71,0.00,,,0.00,Wunderground v.1.13,2013-01-19 20:23:00,
2013-01-19 14:29:00,24.3,16.2,29.74,WSW,248,18.0,21.0,71,0.00,,,0.00,Wunderground v.1.13,2013-01-19 20:29:00,
2013-01-19 14:33:00,23.8,15.4,29.75,West,270,18.0,28.0,70,0.00,,,0.00,Wunderground v.1.13,2013-01-19 20:33:00,
2013-01-19 14:34:00,23.7,15.3,29.75,West,265,18.0,28.0,70,0.00,,,0.00,Wunderground v.1.13,2013-01-19 20:34:00,
2013-01-19 14:40:00,22.7,13.4,29.76,West,261,17.0,18.0,67,0.00,,,0.00,Wunderground v.1.13,2013-01-19 20:40:00,
2013-01-19 14:45:00,21.3,12.0,29.77,West,267,16.0,27.0,67,0.00,,,0.00,Wunderground v.1.13,2013-01-19 20:45:00,
2013-01-19 14:50:00,20.1,10.9,29.78,SW,227,17.0,18.0,67,0.00,,,0.00,Wunderground v.1.13,2013-01-19 20:50:00,
2013-01-19 14:53:00,18.9,9.4,29.78,West,275,19.0,27.0,66,0.00,,,0.00,Wunderground v.1.13,2013-01-19 20:53:00,
2013-01-19 14:59:00,17.8,8.7,29.80,West,261,19.0,35.0,67,0.00,,,0.00,Wunderground v.1.13,2013-01-19 20:59:00,
2013-01-19 15:02:00,17.5,8.4,29.79,WNW,283,19.0,30.0,67,0.00,,,0.00,Wunderground v.1.13,2013-01-19 21:02:00,
2013-01-19 15:09:00,17.1,8.3,29.80,West,272,18.0,23.0,68,0.00,,,0.00,Wunderground v.1.13,2013-01-19 21:09:00,
2013-01-19 15:11:00,17.1,8.3,29.80,WSW,242,17.0,21.0,68,0.00,,,0.00,Wunderground v.1.13,2013-01-19 21:11:00,
2013-01-19 15:14:00,17.2,8.1,29.80,WSW,252,16.0,23.0,67,0.00,,,0.00,Wunderground v.1.13,2013-01-19 21:14:00,
2013-01-19 15:17:00,17.2,7.4,29.81,WSW,246,17.0,24.0,65,0.00,,,0.00,Wunderground v.1.13,2013-01-19 21:17:00,
2013-01-19 15:23:00,16.2,6.1,29.82,WSW,257,20.0,28.0,64,0.00,,,0.00,Wunderground v.1.13,2013-01-19 21:23:00,
2013-01-19 15:25:00,15.8,5.4,29.82,WSW,257,21.0,21.0,63,0.00,,,0.00,Wunderground v.1.13,2013-01-19 21:25:00,
2013-01-19 15:31:00,15.2,4.9,29.83,West,259,18.0,22.0,63,0.00,,,0.00,Wunderground v.1.13,2013-01-19 21:31:00,
2013-01-19 15:35:00,14.8,4.8,29.84,SW,232,18.0,18.0,64,0.00,,,0.00,Wunderground v.1.13,2013-01-19 21:35:00,
2013-01-19 15:37:00,14.7,4.7,29.84,WSW,241,18.0,20.0,64,0.00,,,0.00,Wunderground v.1.13,2013-01-19 21:37:00,
2013-01-19 15:43:00,14.0,4.1,29.85,West,273,18.0,29.0,64,0.00,,,0.00,Wunderground v.1.13,2013-01-19 21:43:00,
2013-01-19 15:47:00,13.8,3.9,29.85,West,271,19.0,25.0,64,0.00,,,0.00,Wunderground v.1.13,2013-01-19 21:47:00,
2013-01-19 15:51:00,13.9,4.0,29.86,WSW,248,18.0,18.0,64,0.00,,,0.00,Wunderground v.1.13,2013-01-19 21:51:00,
2013-01-19 15:52:00,13.9,4.0,29.86,West,269,18.0,18.0,64,0.00,,,0.00,Wunderground v.1.13,2013-01-19 21:52:00,
2013-01-19 15:57:00,13.9,4.3,29.86,WSW,250,16.0,18.0,65,0.00,,,0.00,Wunderground v.1.13,2013-01-19 21:57:00,
2013-01-19 15:58:00,13.9,4.3,29.87,West,275,14.0,18.0,65,0.00,,,0.00,Wunderground v.1.13,2013-01-19 21:58:00,
2013-01-19 16:04:00,13.6,3.7,29.87,West,280,13.0,26.0,64,0.00,,,0.00,Wunderground v.1.13,2013-01-19 22:04:00,
2013-01-19 16:13:00,12.7,2.5,29.88,West,268,14.0,22.0,63,0.00,,,0.00,Wunderground v.1.13,2013-01-19 22:13:00,
2013-01-19 16:18:00,12.3,1.7,29.88,WSW,243,16.0,23.0,62,0.00,,,0.00,Wunderground v.1.13,2013-01-19 22:18:00,
2013-01-19 16:23:00,11.9,1.4,29.89,WSW,250,18.0,18.0,62,0.00,,,0.00,Wunderground v.1.13,2013-01-19 22:23:00,
2013-01-19 16:24:00,11.9,1.7,29.89,WSW,242,18.0,19.0,63,0.00,,,0.00,Wunderground v.1.13,2013-01-19 22:24:00,
2013-01-19 16:30:00,11.5,2.3,29.90,WNW,286,16.0,16.0,66,0.00,,,0.00,Wunderground v.1.13,2013-01-19 22:30:00,
2013-01-19 16:33:00,11.3,3.1,29.90,WSW,250,15.0,16.0,69,0.00,,,0.00,Wunderground v.1.13,2013-01-19 22:33:00,
2013-01-19 16:36:00,11.0,3.7,29.91,West,265,13.0,14.0,72,0.00,,,0.00,Wunderground v.1.13,2013-01-19 22:36:00,
2013-01-19 16:42:00,10.4,4.0,29.91,WSW,256,13.0,15.0,75,0.00,,,0.00,Wunderground v.1.13,2013-01-19 22:42:00,
2013-01-19 16:46:00,10.3,4.8,29.92,West,273,12.0,22.0,78,0.00,,,0.00,Wunderground v.1.13,2013-01-19 22:46:00,
2013-01-19 16:47:00,10.3,4.5,29.92,WSW,257,13.0,22.0,77,0.00,,,0.00,Wunderground v.1.13,2013-01-19 22:47:00,
2013-01-19 16:52:00,10.2,3.6,29.93,West,267,13.0,29.0,74,0.00,,,0.00,Wunderground v.1.13,2013-01-19 22:52:00,
2013-01-19 16:53:00,10.1,3.5,29.93,West,266,14.0,29.0,74,0.00,,,0.00,Wunderground v.1.13,2013-01-19 22:53:00,
2013-01-19 16:59:00,9.4,2.5,29.93,West,276,16.0,27.0,73,0.00,,,0.00,Wunderground v.1.13,2013-01-19 22:59:00,
2013-01-19 17:03:00,9.2,2.0,29.94,WNW,291,16.0,18.0,72,0.00,,,0.00,Wunderground v.1.13,2013-01-19 23:03:00,
2013-01-19 17:07:00,9.0,2.1,29.95,NW,310,15.0,19.0,73,0.00,,,0.00,Wunderground v.1.13,2013-01-19 23:07:00,
2013-01-19 17:12:00,8.7,2.7,29.95,West,264,13.0,14.0,76,0.00,,,0.00,Wunderground v.1.13,2013-01-19 23:12:00,
2013-01-19 17:17:00,8.4,2.7,29.95,WSW,245,13.0,15.0,77,0.00,,,0.00,Wunderground v.1.13,2013-01-19 23:17:00,
2013-01-19 17:18:00,8.4,2.7,29.95,WSW,246,13.0,15.0,77,0.00,,,0.00,Wunderground v.1.13,2013-01-19 23:18:00,
2013-01-19 17:24:00,8.2,1.9,29.97,WSW,252,13.0,20.0,75,0.00,,,0.00,Wunderground v.1.13,2013-01-19 23:24:00,
2013-01-19 17:25:00,8.2,1.6,29.97,SW,215,13.0,13.0,74,0.00,,,0.00,Wunderground v.1.13,2013-01-19 23:25:00,
2013-01-19 17:32:00,8.1,0.0,29.97,WSW,242,13.0,23.0,69,0.00,,,0.00,Wunderground v.1.13,2013-01-19 23:32:00,
2013-01-19 17:35:00,8.1,0.0,29.98,WSW,254,14.0,18.0,69,0.00,,,0.00,Wunderground v.1.13,2013-01-19 23:35:00,
2013-01-19 17:43:00,7.7,-0.4,29.99,West,261,15.0,18.0,69,0.00,,,0.00,Wunderground v.1.13,2013-01-19 23:43:00,
2013-01-19 17:45:00,7.6,-1.1,29.98,West,271,15.0,27.0,67,0.00,,,0.00,Wunderground v.1.13,2013-01-19 23:45:00,
2013-01-19 17:50:00,7.3,-1.4,29.99,West,275,15.0,18.0,67,0.00,,,0.00,Wunderground v.1.13,2013-01-19 23:50:00,
2013-01-19 17:52:00,7.2,-1.5,30.00,West,265,16.0,21.0,67,0.00,,,0.00,Wunderground v.1.13,2013-01-19 23:52:00,
2013-01-19 17:56:00,7.1,-1.6,30.00,West,260,15.0,16.0,67,0.00,,,0.00,Wunderground v.1.13,2013-01-19 23:56:00,
2013-01-19 17:58:00,7.0,-1.7,30.01,West,260,14.0,16.0,67,0.00,,,0.00,Wunderground v.1.13,2013-01-19 23:58:00,
2013-01-19 18:02:00,6.8,-2.2,30.01,West,269,14.0,14.0,66,0.00,,,0.00,Wunderground v.1.13,2013-01-20 00:02:00,
2013-01-19 18:08:00,6.4,-2.5,30.02,WSW,253,12.0,12.0,66,0.00,,,0.00,Wunderground v.1.13,2013-01-20 00:08:00,
2013-01-19 18:13:00,6.1,-3.2,30.02,West,267,12.0,18.0,65,0.00,,,0.00,Wunderground v.1.13,2013-01-20 00:13:00,
2013-01-19 18:15:00,6.0,-3.3,30.02,WNW,294,12.0,12.0,65,0.00,,,0.00,Wunderground v.1.13,2013-01-20 00:15:00,
2013-01-19 18:19:00,5.8,-3.4,30.03,WNW,284,12.0,12.0,65,0.00,,,0.00,Wunderground v.1.13,2013-01-20 00:19:00,
2013-01-19 18:24:00,5.6,-3.3,30.03,West,277,11.0,18.0,66,0.00,,,0.00,Wunderground v.1.13,2013-01-20 00:24:00,
2013-01-19 18:28:00,5.3,-3.6,30.04,WSW,250,13.0,19.0,66,0.00,,,0.00,Wunderground v.1.13,2013-01-20 00:28:00,
2013-01-19 18:30:00,5.1,-3.5,30.04,WNW,285,14.0,19.0,67,0.00,,,0.00,Wunderground v.1.13,2013-01-20 00:30:00,
2013-01-19 18:33:00,5.1,-3.5,30.04,WSW,256,14.0,19.0,67,0.00,,,0.00,Wunderground v.1.13,2013-01-20 00:33:00,
2013-01-19 18:39:00,4.9,-3.7,30.05,WSW,246,12.0,15.0,67,0.00,,,0.00,Wunderground v.1.13,2013-01-20 00:39:00,
2013-01-19 18:45:00,4.7,-3.9,30.06,WNW,290,12.0,20.0,67,0.00,,,0.00,Wunderground v.1.13,2013-01-20 00:45:00,
2013-01-19 18:48:00,4.6,-4.0,30.06,WNW,288,12.0,20.0,67,0.00,,,0.00,Wunderground v.1.13,2013-01-20 00:48:00,
2013-01-19 18:52:00,4.5,-4.4,30.06,West,259,13.0,16.0,66,0.00,,,0.00,Wunderground v.1.13,2013-01-20 00:52:00,
2013-01-19 18:54:00,4.5,-4.4,30.07,West,271,14.0,16.0,66,0.00,,,0.00,Wunderground v.1.13,2013-01-20 00:54:00,
2013-01-19 18:59:00,4.3,-4.6,30.07,WSW,245,11.0,16.0,66,0.00,,,0.00,Wunderground v.1.13,2013-01-20 00:59:00,
2013-01-19 19:00:00,4.3,-4.6,30.08,WNW,302,10.0,10.0,66,0.00,,,0.00,Wunderground v.1.13,2013-01-20 01:00:00,
2013-01-19 19:06:00,4.1,-4.4,30.08,West,280,9.0,11.0,67,0.00,,,0.00,Wunderground v.1.13,2013-01-20 01:06:00,
2013-01-19 19:12:00,3.7,-3.6,30.09,West,272,10.0,10.0,71,0.00,,,0.00,Wunderground v.1.13,2013-01-20 01:12:00,
2013-01-19 19:17:00,3.6,-4.0,30.09,WSW,257,11.0,11.0,70,0.00,,,0.00,Wunderground v.1.13,2013-01-20 01:17:00,
2013-01-19 19:22:00,3.5,-4.4,30.09,WNW,297,12.0,14.0,69,0.00,,,0.00,Wunderground v.1.13,2013-01-20 01:22:00,
2013-01-19 19:23:00,3.4,-4.5,30.09,WSW,250,12.0,14.0,69,0.00,,,0.00,Wunderground v.1.13,2013-01-20 01:23:00,
2013-01-19 19:28:00,3.2,-4.4,30.10,West,271,11.0,14.0,70,0.00,,,0.00,Wunderground v.1.13,2013-01-20 01:28:00,
2013-01-19 19:29:00,3.3,-4.3,30.10,WNW,290,11.0,14.0,70,0.00,,,0.00,Wunderground v.1.13,2013-01-20 01:29:00,
2013-01-19 19:34:00,3.2,-4.4,30.10,West,263,11.0,13.0,70,0.00,,,0.00,Wunderground v.1.13,2013-01-20 01:34:00,
2013-01-19 19:37:00,3.1,-4.2,30.11,West,268,11.0,12.0,71,0.00,,,0.00,Wunderground v.1.13,2013-01-20 01:37:00,
2013-01-19 19:39:00,3.0,-4.3,30.11,WNW,294,10.0,12.0,71,0.00,,,0.00,Wunderground v.1.13,2013-01-20 01:39:00,
2013-01-19 19:44:00,2.8,-4.5,30.11,WSW,257,10.0,19.0,71,0.00,,,0.00,Wunderground v.1.13,2013-01-20 01:44:00,
2013-01-19 19:48:00,2.7,-4.3,30.11,West,261,9.0,11.0,72,0.00,,,0.00,Wunderground v.1.13,2013-01-20 01:48:00,
2013-01-19 19:49:00,2.7,-4.6,30.12,West,268,9.0,11.0,71,0.00,,,0.00,Wunderground v.1.13,2013-01-20 01:49:00,
2013-01-19 19:56:00,2.5,-4.5,30.12,West,267,11.0,11.0,72,0.00,,,0.00,Wunderground v.1.13,2013-01-20 01:56:00,
2013-01-19 19:57:00,2.5,-4.5,30.12,West,271,10.0,11.0,72,0.00,,,0.00,Wunderground v.1.13,2013-01-20 01:57:00,
2013-01-19 20:03:00,2.3,-4.4,30.12,West,264,9.0,11.0,73,0.00,,,0.00,Wunderground v.1.13,2013-01-20 02:03:00,
2013-01-19 20:04:00,2.3,-4.4,30.13,West,265,8.0,11.0,73,0.00,,,0.00,Wunderground v.1.13,2013-01-20 02:04:00,
2013-01-19 20:08:00,2.3,-4.4,30.13,West,268,8.0,18.0,73,0.00,,,0.00,Wunderground v.1.13,2013-01-20 02:08:00,
2013-01-19 20:14:00,2.2,-4.5,30.13,West,261,9.0,13.0,73,0.00,,,0.00,Wunderground v.1.13,2013-01-20 02:14:00,
2013-01-19 20:15:00,2.2,-4.2,30.13,West,268,9.0,9.0,74,0.00,,,0.00,Wunderground v.1.13,2013-01-20 02:15:00,
2013-01-19 20:20:00,2.2,-4.5,30.13,WNW,283,8.0,8.0,73,0.00,,,0.00,Wunderground v.1.13,2013-01-20 02:20:00,
2013-01-19 20:24:00,2.3,-4.4,30.13,West,259,8.0,11.0,73,0.00,,,0.00,Wunderground v.1.13,2013-01-20 02:24:00,
2013-01-19 20:26:00,2.3,-4.7,30.13,West,263,8.0,11.0,72,0.00,,,0.00,Wunderground v.1.13,2013-01-20 02:26:00,
2013-01-19 20:30:00,2.2,-4.8,30.14,WSW,246,9.0,10.0,72,0.00,,,0.00,Wunderground v.1.13,2013-01-20 02:30:00,
2013-01-19 20:31:00,2.2,-4.8,30.14,WSW,255,9.0,10.0,72,0.00,,,0.00,Wunderground v.1.13,2013-01-20 02:31:00,
2013-01-19 20:36:00,2.2,-4.8,30.14,West,272,9.0,13.0,72,0.00,,,0.00,Wunderground v.1.13,2013-01-20 02:36:00,
2013-01-19 20:41:00,2.2,-5.1,30.14,West,267,9.0,9.0,71,0.00,,,0.00,Wunderground v.1.13,2013-01-20 02:41:00,
2013-01-19 20:44:00,2.2,-5.1,30.14,West,271,10.0,12.0,71,0.00,,,0.00,Wunderground v.1.13,2013-01-20 02:44:00,
2013-01-19 20:49:00,2.2,-5.1,30.15,WSW,242,9.0,14.0,71,0.00,,,0.00,Wunderground v.1.13,2013-01-20 02:49:00,
2013-01-19 20:53:00,2.1,-5.2,30.15,West,271,9.0,11.0,71,0.00,,,0.00,Wunderground v.1.13,2013-01-20 02:53:00,
2013-01-19 20:55:00,2.1,-5.2,30.15,WSW,252,9.0,9.0,71,0.00,,,0.00,Wunderground v.1.13,2013-01-20 02:55:00,
2013-01-19 21:01:00,2.0,-5.2,30.15,WNW,295,9.0,13.0,71,0.00,,,0.00,Wunderground v.1.13,2013-01-20 03:01:00,
2013-01-19 21:02:00,2.0,-5.2,30.15,West,273,9.0,13.0,71,0.00,,,0.00,Wunderground v.1.13,2013-01-20 03:02:00,
2013-01-19 21:07:00,2.0,-5.2,30.16,West,266,9.0,14.0,71,0.00,,,0.00,Wunderground v.1.13,2013-01-20 03:07:00,
2013-01-19 21:08:00,2.0,-5.2,30.16,WNW,285,9.0,14.0,71,0.00,,,0.00,Wunderground v.1.13,2013-01-20 03:08:00,
2013-01-19 21:14:00,1.9,-5.3,30.16,West,267,9.0,9.0,71,0.00,,,0.00,Wunderground v.1.13,2013-01-20 03:14:00,
2013-01-19 21:16:00,1.9,-5.3,30.16,West,261,9.0,13.0,71,0.00,,,0.00,Wunderground v.1.13,2013-01-20 03:16:00,
2013-01-19 21:22:00,1.8,-5.4,30.16,West,268,8.0,11.0,71,0.00,,,0.00,Wunderground v.1.13,2013-01-20 03:22:00,
2013-01-19 21:24:00,1.7,-5.5,30.16,WNW,286,8.0,11.0,71,0.00,,,0.00,Wunderground v.1.13,2013-01-20 03:24:00,
2013-01-19 21:29:00,1.7,-5.5,30.16,West,265,8.0,10.0,71,0.00,,,0.00,Wunderground v.1.13,2013-01-20 03:29:00,
2013-01-19 21:31:00,1.6,-5.3,30.16,WSW,253,8.0,11.0,72,0.00,,,0.00,Wunderground v.1.13,2013-01-20 03:31:00,
2013-01-19 21:34:00,1.6,-5.3,30.16,WSW,249,8.0,11.0,72,0.00,,,0.00,Wunderground v.1.13,2013-01-20 03:34:00,
2013-01-19 21:37:00,1.5,-5.4,30.17,WNW,300,7.0,10.0,72,0.00,,,0.00,Wunderground v.1.13,2013-01-20 03:37:00,
2013-01-19 21:39:00,1.5,-5.4,30.17,West,263,8.0,12.0,72,0.00,,,0.00,Wunderground v.1.13,2013-01-20 03:39:00,
2013-01-19 21:43:00,1.5,-5.4,30.17,West,260,8.0,10.0,72,0.00,,,0.00,Wunderground v.1.13,2013-01-20 03:43:00,
2013-01-19 21:46:00,1.5,-5.4,30.17,West,280,9.0,9.0,72,0.00,,,0.00,Wunderground v.1.13,2013-01-20 03:46:00,
2013-01-19 21:50:00,1.5,-5.4,30.17,West,279,8.0,9.0,72,0.00,,,0.00,Wunderground v.1.13,2013-01-20 03:50:00,
2013-01-19 21:52:00,1.4,-5.5,30.18,West,266,9.0,12.0,72,0.00,,,0.00,Wunderground v.1.13,2013-01-20 03:52:00,
2013-01-19 21:57:00,1.4,-5.5,30.18,West,272,8.0,13.0,72,0.00,,,0.00,Wunderground v.1.13,2013-01-20 03:57:00,
2013-01-19 22:00:00,1.4,-5.5,30.18,West,273,8.0,8.0,72,0.00,,,0.00,Wunderground v.1.13,2013-01-20 04:00:00,
2013-01-19 22:02:00,1.3,-5.6,30.18,West,281,8.0,8.0,72,0.00,,,0.00,Wunderground v.1.13,2013-01-20 04:02:00,
2013-01-19 22:08:00,1.2,-5.4,30.18,West,273,8.0,11.0,73,0.00,,,0.00,Wunderground v.1.13,2013-01-20 04:08:00,
2013-01-19 22:09:00,1.2,-5.4,30.18,West,261,8.0,11.0,73,0.00,,,0.00,Wunderground v.1.13,2013-01-20 04:09:00,
2013-01-19 22:14:00,1.2,-5.4,30.19,West,259,9.0,14.0,73,0.00,,,0.00,Wunderground v.1.13,2013-01-20 04:14:00,
2013-01-19 22:17:00,1.2,-5.7,30.19,West,261,9.0,11.0,72,0.00,,,0.00,Wunderground v.1.13,2013-01-20 04:17:00,
2013-01-19 22:20:00,1.1,-5.8,30.20,WSW,252,9.0,9.0,72,0.00,,,0.00,Wunderground v.1.13,2013-01-20 04:20:00,
2013-01-19 22:25:00,1.1,-5.5,30.20,West,271,9.0,9.0,73,0.00,,,0.00,Wunderground v.1.13,2013-01-20 04:25:00,
2013-01-19 22:27:00,1.0,-5.6,30.20,WSW,253,9.0,9.0,73,0.00,,,0.00,Wunderground v.1.13,2013-01-20 04:27:00,
2013-01-19 22:30:00,1.0,-5.6,30.20,West,276,8.0,8.0,73,0.00,,,0.00,Wunderground v.1.13,2013-01-20 04:30:00,
2013-01-19 22:32:00,0.9,-5.7,30.20,WSW,256,8.0,8.0,73,0.00,,,0.00,Wunderground v.1.13,2013-01-20 04:32:00,
2013-01-19 22:37:00,0.9,-5.7,30.20,West,278,8.0,10.0,73,0.00,,,0.00,Wunderground v.1.13,2013-01-20 04:37:00,
2013-01-19 22:39:00,0.8,-5.8,30.20,West,273,8.0,10.0,73,0.00,,,0.00,Wunderground v.1.13,2013-01-20 04:39:00,
2013-01-19 22:43:00,0.8,-6.1,30.20,West,259,8.0,11.0,72,0.00,,,0.00,Wunderground v.1.13,2013-01-20 04:43:00,
2013-01-19 22:47:00,0.7,-6.2,30.20,West,266,8.0,9.0,72,0.00,,,0.00,Wunderground v.1.13,2013-01-20 04:47:00,
2013-01-19 22:52:00,0.6,-6.3,30.20,West,259,8.0,9.0,72,0.00,,,0.00,Wunderground v.1.13,2013-01-20 04:52:00,
2013-01-19 22:55:00,0.6,-6.3,30.20,West,265,8.0,8.0,72,0.00,,,0.00,Wunderground v.1.13,2013-01-20 04:55:00,
2013-01-19 22:57:00,0.5,-6.4,30.20,West,263,8.0,12.0,72,0.00,,,0.00,Wunderground v.1.13,2013-01-20 04:57:00,
2013-01-19 23:01:00,0.5,-6.4,30.20,West,261,8.0,9.0,72,0.00,,,0.00,Wunderground v.1.13,2013-01-20 05:01:00,
2013-01-19 23:04:00,0.4,-6.5,30.20,West,269,8.0,9.0,72,0.00,,,0.00,Wunderground v.1.13,2013-01-20 05:04:00,
2013-01-19 23:05:00,0.4,-6.5,30.20,West,280,9.0,10.0,72,0.00,,,0.00,Wunderground v.1.13,2013-01-20 05:05:00,
2013-01-19 23:09:00,0.4,-6.5,30.20,West,261,9.0,10.0,72,0.00,,,0.00,Wunderground v.1.13,2013-01-20 05:09:00,
2013-01-19 23:13:00,0.3,-6.6,30.19,West,269,9.0,13.0,72,0.00,,,0.00,Wunderground v.1.13,2013-01-20 05:13:00,
2013-01-19 23:14:00,0.3,-6.6,30.19,West,260,9.0,13.0,72,0.00,,,0.00,Wunderground v.1.13,2013-01-20 05:14:00,
2013-01-19 23:15:00,0.3,-6.6,30.19,West,265,8.0,9.0,72,0.00,,,0.00,Wunderground v.1.13,2013-01-20 05:15:00,
2013-01-19 23:19:00,0.2,-6.4,30.19,WSW,257,8.0,10.0,73,0.00,,,0.00,Wunderground v.1.13,2013-01-20 05:19:00,
2013-01-19 23:20:00,0.1,-6.5,30.19,WSW,254,8.0,8.0,73,0.00,,,0.00,Wunderground v.1.13,2013-01-20 05:20:00,
2013-01-19 23:21:00,0.1,-6.5,30.19,West,259,8.0,10.0,73,0.00,,,0.00,Wunderground v.1.13,2013-01-20 05:21:00,
2013-01-19 23:27:00,0.0,-6.6,30.19,West,267,6.0,7.0,73,0.00,,,0.00,Wunderground v.1.13,2013-01-20 05:27:00,
2013-01-19 23:30:00,-0.1,-6.7,30.19,WNW,286,6.0,6.0,73,0.00,,,0.00,Wunderground v.1.13,2013-01-20 05:30:00,
2013-01-19 23:31:00,-0.1,-6.7,30.19,WSW,250,6.0,6.0,73,0.00,,,0.00,Wunderground v.1.13,2013-01-20 05:31:00,
2013-01-19 23:32:00,-0.1,-6.7,30.19,West,259,5.0,7.0,73,0.00,,,0.00,Wunderground v.1.13,2013-01-20 05:32:00,
2013-01-19 23:36:00,-0.2,-6.8,30.19,WSW,257,5.0,10.0,73,0.00,,,0.00,Wunderground v.1.13,2013-01-20 05:36:00,
2013-01-19 23:37:00,-0.2,-6.8,30.19,WSW,242,5.0,10.0,73,0.00,,,0.00,Wunderground v.1.13,2013-01-20 05:37:00,
2013-01-19 23:41:00,-0.2,-6.8,30.19,WNW,294,6.0,6.0,73,0.00,,,0.00,Wunderground v.1.13,2013-01-20 05:41:00,
2013-01-19 23:42:00,-0.2,-6.8,30.19,West,262,6.0,6.0,73,0.00,,,0.00,Wunderground v.1.13,2013-01-20 05:42:00,
2013-01-19 23:44:00,-0.2,-6.8,30.19,West,259,6.0,6.0,73,0.00,,,0.00,Wunderground v.1.13,2013-01-20 05:44:00,
2013-01-19 23:46:00,-0.2,-6.8,30.19,West,265,6.0,8.0,73,0.00,,,0.00,Wunderground v.1.13,2013-01-20 05:46:00,
2013-01-19 23:47:00,-0.2,-6.8,30.19,WSW,255,6.0,10.0,73,0.00,,,0.00,Wunderground v.1.13,2013-01-20 05:47:00,
2013-01-19 23:51:00,-0.2,-6.8,30.20,West,266,6.0,6.0,73,0.00,,,0.00,Wunderground v.1.13,2013-01-20 05:51:00,
2013-01-19 23:54:00,-0.2,-6.8,30.20,WSW,244,6.0,9.0,73,0.00,,,0.00,Wunderground v.1.13,2013-01-20 05:54:00,
2013-01-19 23:57:00,-0.2,-6.8,30.20,WSW,254,6.0,9.0,73,0.00,,,0.00,Wunderground v.1.13,2013-01-20 05:57:00,